Time;durP1;ratioP1;P1;durP2;ratioP2;P2;SDS_P1;SDS_P2;PMS_P1;PMS_P2;Temp;Humidity;BMP_temperature;BMP_pressure;BME280_temperature;BME280_humidity;BME280_pressure;Samples;Min_cycle;Max_cycle;Signal;HPM_P1;HPM_P2
2023/01/01 00:01:27;;;;;;;8.53;2.20;;;16.30;99.90;;;;;;5093343;28;20185;-79
2023/01/01 00:03:55;;;;;;;3.83;1.93;;;16.30;99.90;;;;;;5092995;28;20213;-79
2023/01/01 00:06:21;;;;;;;7.33;2.00;;;16.30;99.90;;;;;;5075195;28;20189;-79
2023/01/01 00:08:47;;;;;;;14.47;4.70;;;16.30;99.90;;;;;;5093056;28;20185;-79
2023/01/01 00:11:14;;;;;;;7.10;2.20;;;16.20;99.90;;;;;;5093063;28;20176;-79
2023/01/01 00:13:41;;;;;;;8.50;2.57;;;16.20;99.90;;;;;;5093251;28;20181;-79
2023/01/01 00:16:11;;;;;;;7.77;2.50;;;16.20;99.90;;;;;;5075049;28;20178;-78
2023/01/01 00:18:38;;;;;;;7.00;2.60;;;16.10;99.90;;;;;;5092955;28;20205;-80
2023/01/01 00:21:10;;;;;;;4.53;1.93;;;16.10;99.90;;;;;;5093077;28;20711;-79
2023/01/01 00:23:35;;;;;;;6.37;1.97;;;16.00;99.90;;;;;;5074804;28;20212;-79
2023/01/01 00:26:07;;;;;;;9.93;2.13;;;16.00;99.90;;;;;;5092900;28;20175;-79
2023/01/01 00:28:34;;;;;;;8.10;2.40;;;16.00;99.90;;;;;;5074633;28;20185;-78
2023/01/01 00:31:04;;;;;;;6.93;2.20;;;16.00;99.90;;;;;;5092757;28;20204;-78
2023/01/01 00:33:29;;;;;;;4.47;1.70;;;15.90;99.90;;;;;;5092322;28;20272;-78
2023/01/01 00:35:55;;;;;;;7.50;2.00;;;15.90;99.90;;;;;;5092927;28;20315;-78
2023/01/01 00:38:22;;;;;;;3.53;1.90;;;16.00;99.90;;;;;;5074758;28;20699;-78
2023/01/01 00:40:48;;;;;;;3.23;1.90;;;15.90;99.90;;;;;;5074604;28;20177;-79
2023/01/01 00:43:15;;;;;;;6.77;2.03;;;15.90;99.90;;;;;;5074625;28;20347;-79
2023/01/01 00:45:46;;;;;;;3.60;1.87;;;15.80;99.90;;;;;;5074729;28;20182;-79
2023/01/01 00:48:12;;;;;;;3.60;1.60;;;15.70;99.90;;;;;;5074600;28;20561;-79
2023/01/01 00:50:37;;;;;;;7.77;2.17;;;15.80;99.90;;;;;;5074799;28;20178;-78
2023/01/01 00:53:03;;;;;;;8.97;1.90;;;15.90;99.90;;;;;;5074628;28;20640;-78
2023/01/01 00:55:28;;;;;;;5.00;1.60;;;15.80;99.90;;;;;;5092646;28;20181;-78
2023/01/01 00:57:54;;;;;;;4.37;1.90;;;15.90;99.90;;;;;;5093225;28;20179;-79
2023/01/01 01:00:19;;;;;;;4.47;2.20;;;15.90;99.90;;;;;;5074473;28;20544;-79
2023/01/01 01:02:45;;;;;;;3.93;1.90;;;16.00;99.90;;;;;;5092551;28;20244;-79
2023/01/01 01:05:13;;;;;;;7.00;2.00;;;16.10;99.90;;;;;;5074469;28;20585;-79
2023/01/01 01:07:39;;;;;;;7.43;1.80;;;16.00;99.90;;;;;;5074529;28;20649;-79
2023/01/01 01:10:06;;;;;;;6.50;2.00;;;15.90;99.90;;;;;;5074215;28;20185;-79
2023/01/01 01:12:33;;;;;;;5.60;1.80;;;15.80;99.90;;;;;;5074385;28;20177;-79
2023/01/01 01:14:59;;;;;;;3.50;1.80;;;15.80;99.90;;;;;;5092435;28;20716;-79
2023/01/01 01:17:25;;;;;;;7.13;1.60;;;15.60;99.90;;;;;;5092642;28;20183;-79
2023/01/01 01:19:51;;;;;;;4.17;1.67;;;15.70;99.90;;;;;;5092497;28;20239;-79
2023/01/01 01:22:17;;;;;;;7.47;1.90;;;15.70;99.90;;;;;;5092315;28;20208;-78
2023/01/01 01:24:42;;;;;;;8.53;1.77;;;15.70;99.90;;;;;;5074284;28;20183;-79
2023/01/01 01:27:08;;;;;;;7.07;1.50;;;15.70;99.90;;;;;;5074298;28;20624;-79
2023/01/01 01:29:34;;;;;;;6.63;2.20;;;15.70;99.90;;;;;;5092363;28;20223;-78
2023/01/01 01:31:59;;;;;;;4.93;2.10;;;15.70;99.90;;;;;;5075749;28;20183;-79
2023/01/01 01:34:25;;;;;;;7.97;2.60;;;15.70;99.90;;;;;;5074094;28;20182;-78
2023/01/01 01:36:52;;;;;;;8.03;1.80;;;15.60;99.90;;;;;;5092282;28;20761;-79
2023/01/01 01:39:18;;;;;;;6.40;2.33;;;15.50;99.90;;;;;;5092414;28;20210;-79
2023/01/01 01:41:44;;;;;;;3.97;1.83;;;15.60;99.90;;;;;;5092163;28;20254;-79
2023/01/01 01:44:47;;;;;;;4.87;1.57;;;15.60;99.90;;;;;;5092231;28;20316;-78
2023/01/01 01:47:24;;;;;;;5.50;1.77;;;15.70;99.90;;;;;;5096223;28;20202;-80
2023/01/01 01:50:12;;;;;;;7.37;1.90;;;15.70;99.90;;;;;;5077621;28;20173;-77
2023/01/01 01:52:43;;;;;;;4.77;1.50;;;15.80;99.90;;;;;;5076661;28;20183;-77
2023/01/01 01:55:09;;;;;;;9.80;1.97;;;15.90;99.90;;;;;;5095722;28;20174;-78
2023/01/01 01:57:37;;;;;;;6.60;2.17;;;15.70;99.90;;;;;;5077654;28;20174;-78
2023/01/01 02:00:04;;;;;;;10.60;1.90;;;15.70;99.90;;;;;;5095611;28;20178;-78
2023/01/01 02:02:36;;;;;;;9.87;2.13;;;15.70;99.90;;;;;;5095728;28;20202;-78
2023/01/01 02:05:04;;;;;;;10.80;2.60;;;15.80;99.90;;;;;;5077540;28;20171;-78
2023/01/01 02:07:32;;;;;;;7.73;2.20;;;15.80;99.90;;;;;;5095333;28;20289;-78
2023/01/01 02:09:59;;;;;;;4.73;1.83;;;15.80;99.90;;;;;;5095488;28;20625;-78
2023/01/01 02:12:26;;;;;;;6.73;2.07;;;15.80;99.90;;;;;;5077257;28;20639;-78
2023/01/01 02:14:52;;;;;;;7.43;1.70;;;15.80;99.90;;;;;;5077228;28;20178;-78
2023/01/01 02:17:47;;;;;;;5.47;1.60;;;15.80;99.90;;;;;;5095247;28;20253;-78
2023/01/01 02:20:18;;;;;;;6.53;1.60;;;15.90;99.90;;;;;;5049561;28;20644;-78
2023/01/01 02:22:47;;;;;;;4.83;1.67;;;15.80;99.90;;;;;;5076864;28;20198;-78
2023/01/01 02:25:23;;;;;;;7.10;1.77;;;15.70;99.90;;;;;;5076864;28;20225;-78
2023/01/01 02:28:01;;;;;;;7.67;1.97;;;15.60;99.90;;;;;;5076930;28;20231;-78
2023/01/01 02:30:30;;;;;;;7.67;1.97;;;15.60;99.90;;;;;;5094971;28;20205;-79
2023/01/01 02:33:03;;;;;;;5.03;1.67;;;15.50;99.90;;;;;;5076856;28;20583;-78
2023/01/01 02:35:41;;;;;;;6.13;2.07;;;15.50;99.90;;;;;;5094631;28;20186;-79
2023/01/01 02:38:20;;;;;;;5.37;1.77;;;15.50;99.90;;;;;;5076907;28;20632;-78
2023/01/01 02:40:48;;;;;;;6.83;2.07;;;15.60;99.90;;;;;;5094818;28;20189;-78
2023/01/01 02:43:14;;;;;;;4.83;2.07;;;15.60;99.90;;;;;;5076598;28;20218;-78
2023/01/01 02:45:40;;;;;;;7.43;2.00;;;15.60;99.90;;;;;;5094762;28;20175;-78
2023/01/01 02:48:38;;;;;;;7.20;2.00;;;15.60;99.90;;;;;;5094853;28;20185;-78
2023/01/01 02:51:17;;;;;;;5.87;1.80;;;15.50;99.90;;;;;;5094624;28;20175;-78
2023/01/01 02:53:58;;;;;;;5.17;1.40;;;15.50;99.90;;;;;;5076454;28;20544;-78
2023/01/01 02:56:44;;;;;;;5.80;1.70;;;15.30;99.90;;;;;;5093785;28;20182;-78
2023/01/01 03:02:32;;;;;;;5.47;1.60;;;15.30;99.90;;;;;;5094556;28;20237;-78
2023/01/01 03:05:17;;;;;;;5.00;1.60;;;15.40;99.90;;;;;;5094215;28;20180;-78
2023/01/01 03:08:17;;;;;;;6.03;1.63;;;15.30;99.90;;;;;;5094321;28;20524;-78
2023/01/01 03:11:00;;;;;;;5.07;1.60;;;15.30;99.90;;;;;;5094378;28;20179;-78
2023/01/01 03:13:43;;;;;;;7.90;1.87;;;15.20;99.90;;;;;;5094383;28;20209;-78
2023/01/01 03:16:09;;;;;;;6.00;1.70;;;15.20;99.90;;;;;;5094120;28;20715;-78
2023/01/01 03:18:47;;;;;;;3.47;1.40;;;15.20;99.90;;;;;;5093930;28;20182;-78
2023/01/01 03:21:16;;;;;;;7.10;1.60;;;15.20;99.90;;;;;;5094474;28;20220;-78
2023/01/01 03:23:48;;;;;;;7.43;1.77;;;15.20;99.90;;;;;;5075863;28;20206;-78
2023/01/01 03:26:18;;;;;;;5.20;1.57;;;15.20;99.90;;;;;;5094164;28;20624;-79
2023/01/01 03:28:57;;;;;;;4.97;1.80;;;15.20;99.90;;;;;;5093946;28;20683;-78
2023/01/01 03:31:25;;;;;;;5.63;1.93;;;15.20;99.90;;;;;;5093862;28;20286;-78
2023/01/01 03:33:57;;;;;;;3.57;1.80;;;15.20;99.90;;;;;;5075534;28;20183;-78
2023/01/01 03:36:34;;;;;;;4.23;1.60;;;15.10;99.90;;;;;;5093890;28;20190;-79
2023/01/01 03:39:09;;;;;;;6.80;2.00;;;14.90;99.90;;;;;;5094195;28;20250;-79
2023/01/01 03:41:51;;;;;;;4.33;1.67;;;14.80;99.90;;;;;;5093872;28;20219;-78
2023/01/01 03:44:19;;;;;;;5.17;1.90;;;14.70;99.90;;;;;;5093749;28;20229;-78
2023/01/01 03:46:45;;;;;;;5.97;1.87;;;14.60;99.90;;;;;;5093756;28;20226;-78
2023/01/01 03:49:12;;;;;;;6.37;2.10;;;14.40;99.90;;;;;;5075356;28;20175;-78
2023/01/01 03:52:04;;;;;;;8.43;2.30;;;14.40;99.90;;;;;;5075650;28;20205;-78
2023/01/01 03:54:41;;;;;;;4.23;1.90;;;14.30;99.90;;;;;;5070454;28;20185;-78
2023/01/01 03:57:19;;;;;;;6.03;1.93;;;14.30;99.90;;;;;;5093522;28;20177;-78
2023/01/01 03:59:51;;;;;;;4.77;1.77;;;14.30;99.90;;;;;;5093440;28;20173;-76
2023/01/01 04:02:20;;;;;;;9.07;2.20;;;14.30;99.90;;;;;;5074813;28;20216;-76
2023/01/01 04:04:48;;;;;;;4.77;1.80;;;14.40;99.90;;;;;;5075236;28;20169;-76
2023/01/01 04:07:14;;;;;;;8.77;2.07;;;14.30;99.90;;;;;;5075022;28;20182;-76
2023/01/01 04:09:44;;;;;;;5.77;1.80;;;14.30;99.90;;;;;;5074340;28;20231;-76
2023/01/01 04:12:10;;;;;;;7.47;1.70;;;14.40;99.90;;;;;;5093125;28;20537;-76
2023/01/01 04:14:39;;;;;;;8.10;1.70;;;14.50;99.90;;;;;;5093221;28;20175;-76
2023/01/01 04:17:07;;;;;;;6.23;1.83;;;14.60;99.90;;;;;;5093141;28;20223;-77
2023/01/01 04:19:33;;;;;;;6.27;1.83;;;14.60;99.90;;;;;;5074901;28;20178;-76
2023/01/01 04:21:59;;;;;;;7.53;1.70;;;14.50;99.90;;;;;;5075096;28;20524;-76
2023/01/01 04:24:25;;;;;;;3.97;1.43;;;14.60;99.90;;;;;;5093031;28;20211;-76
2023/01/01 04:26:52;;;;;;;7.33;1.60;;;14.60;99.90;;;;;;5075034;28;20166;-76
2023/01/01 04:29:18;;;;;;;7.20;2.03;;;14.50;99.90;;;;;;5074752;28;20261;-76
2023/01/01 04:31:45;;;;;;;6.13;2.10;;;14.50;99.90;;;;;;5092816;28;20568;-76
2023/01/01 04:34:11;;;;;;;6.17;1.90;;;14.60;99.90;;;;;;5074677;28;20180;-76
2023/01/01 04:36:37;;;;;;;6.07;1.60;;;14.70;99.90;;;;;;5074882;28;20665;-76
2023/01/01 04:39:03;;;;;;;5.20;1.80;;;14.80;99.90;;;;;;5074575;28;20186;-76
2023/01/01 04:41:29;;;;;;;6.83;2.03;;;14.80;99.90;;;;;;5074996;28;20224;-76
2023/01/01 04:43:55;;;;;;;6.13;1.57;;;14.70;99.90;;;;;;5074653;28;20208;-80
2023/01/01 04:46:22;;;;;;;7.43;1.90;;;14.70;99.90;;;;;;5092824;28;20579;-80
2023/01/01 04:48:48;;;;;;;8.77;2.27;;;14.70;99.90;;;;;;5074878;28;20201;-80
2023/01/01 04:51:16;;;;;;;4.97;1.93;;;14.50;99.90;;;;;;5074592;28;20639;-80
2023/01/01 04:53:44;;;;;;;6.00;1.90;;;14.60;99.90;;;;;;5092746;28;20181;-80
2023/01/01 04:56:17;;;;;;;7.17;2.27;;;14.60;99.90;;;;;;5092743;28;20181;-80
2023/01/01 04:58:43;;;;;;;9.20;2.37;;;14.60;99.90;;;;;;5092740;28;20176;-80
2023/01/01 05:01:35;;;;;;;5.57;1.60;;;14.50;99.90;;;;;;5092885;28;20231;-80
2023/01/01 05:04:02;;;;;;;5.07;1.40;;;14.50;99.90;;;;;;5088237;28;20229;-79
2023/01/01 05:06:28;;;;;;;6.10;1.77;;;14.60;99.90;;;;;;5075002;28;20181;-79
2023/01/01 05:08:55;;;;;;;5.57;2.17;;;14.70;99.90;;;;;;5092609;28;20166;-79
2023/01/01 05:11:27;;;;;;;5.63;2.27;;;14.70;99.90;;;;;;5074864;28;20177;-79
2023/01/01 05:13:56;;;;;;;8.20;1.80;;;14.60;99.90;;;;;;5074733;28;20539;-79
2023/01/01 05:16:24;;;;;;;12.57;2.30;;;14.60;99.90;;;;;;5092656;28;20261;-79
2023/01/01 05:18:51;;;;;;;6.93;2.03;;;14.70;99.90;;;;;;5074632;28;20574;-79
2023/01/01 05:21:20;;;;;;;4.20;1.57;;;14.60;99.90;;;;;;5078063;28;20192;-79
2023/01/01 05:23:46;;;;;;;6.00;2.10;;;14.70;99.90;;;;;;5096358;28;20220;-79
2023/01/01 05:26:19;;;;;;;7.83;1.80;;;14.70;99.90;;;;;;5078450;28;20178;-80
2023/01/01 05:28:47;;;;;;;4.13;1.53;;;14.70;99.90;;;;;;5096367;28;20171;-79
2023/01/01 05:31:24;;;;;;;6.67;1.97;;;14.70;99.90;;;;;;5078052;28;20193;-79
2023/01/01 05:33:51;;;;;;;5.00;1.87;;;14.70;99.90;;;;;;5096695;28;20184;-79
2023/01/01 05:36:23;;;;;;;5.73;1.83;;;14.80;99.90;;;;;;5077917;28;20256;-79
2023/01/01 05:38:50;;;;;;;8.97;2.10;;;14.80;99.90;;;;;;5078093;28;20214;-79
2023/01/01 05:41:17;;;;;;;3.87;1.50;;;14.80;99.90;;;;;;5078038;28;20636;-79
2023/01/01 05:43:43;;;;;;;5.33;2.43;;;14.80;99.90;;;;;;5077660;28;20202;-79
2023/01/01 05:46:14;;;;;;;9.10;2.30;;;14.70;99.90;;;;;;5078389;28;20173;-79
2023/01/01 05:48:40;;;;;;;7.67;1.90;;;14.70;99.90;;;;;;5096424;28;20158;-79
2023/01/01 05:51:19;;;;;;;5.33;2.00;;;14.70;99.90;;;;;;5096093;28;20183;-79
2023/01/01 05:53:45;;;;;;;8.20;2.40;;;14.80;99.90;;;;;;5095982;28;20256;-79
2023/01/01 05:56:12;;;;;;;8.23;1.80;;;14.80;99.90;;;;;;5095899;28;20190;-79
2023/01/01 05:58:38;;;;;;;6.07;2.03;;;14.70;99.90;;;;;;5095897;28;20208;-79
2023/01/01 06:01:14;;;;;;;11.27;2.10;;;14.70;99.90;;;;;;5077634;28;20210;-79
2023/01/01 06:03:40;;;;;;;5.27;1.73;;;14.80;99.90;;;;;;5095805;28;20226;-79
2023/01/01 06:06:09;;;;;;;5.20;2.07;;;14.90;99.90;;;;;;5095581;28;20183;-78
2023/01/01 06:08:36;;;;;;;7.40;2.17;;;14.60;99.90;;;;;;5077592;28;20215;-78
2023/01/01 06:11:03;;;;;;;8.07;2.70;;;14.70;99.90;;;;;;5096093;28;20687;-78
2023/01/01 06:13:30;;;;;;;6.10;1.90;;;14.70;99.90;;;;;;5077585;28;20543;-78
2023/01/01 06:15:57;;;;;;;3.90;1.87;;;14.80;99.90;;;;;;5095394;28;20336;-78
2023/01/01 06:18:23;;;;;;;9.70;1.87;;;14.70;99.90;;;;;;5095692;28;20233;-78
2023/01/01 06:20:50;;;;;;;7.57;2.00;;;14.80;99.90;;;;;;5095498;28;20656;-78
2023/01/01 06:23:17;;;;;;;8.83;2.00;;;14.80;99.90;;;;;;5095400;28;20201;-78
2023/01/01 06:25:42;;;;;;;5.30;1.87;;;14.60;99.90;;;;;;5095421;28;20181;-78
2023/01/01 06:28:08;;;;;;;6.50;1.97;;;14.60;99.90;;;;;;5077181;28;20170;-78
2023/01/01 06:30:37;;;;;;;11.67;2.27;;;14.60;99.90;;;;;;5076658;28;20238;-79
2023/01/01 06:33:04;;;;;;;4.40;1.77;;;14.50;99.90;;;;;;5094680;28;20178;-79
2023/01/01 06:35:29;;;;;;;5.83;2.20;;;14.60;99.90;;;;;;5077168;28;20193;-79
2023/01/01 06:37:58;;;;;;;6.67;2.60;;;14.60;99.90;;;;;;5095573;28;20183;-79
2023/01/01 06:40:24;;;;;;;9.53;2.70;;;14.70;99.90;;;;;;5076856;28;20183;-79
2023/01/01 06:42:50;;;;;;;5.70;2.07;;;14.70;99.90;;;;;;5076720;28;20208;-79
2023/01/01 06:45:15;;;;;;;5.80;1.77;;;14.70;99.90;;;;;;5076971;28;20174;-79
2023/01/01 06:47:41;;;;;;;8.57;2.33;;;14.70;99.90;;;;;;5094876;28;20238;-79
2023/01/01 06:50:07;;;;;;;8.37;2.23;;;14.70;99.90;;;;;;5095009;28;20174;-79
2023/01/01 06:52:33;;;;;;;8.93;2.27;;;14.60;99.90;;;;;;5094746;28;20185;-79
2023/01/01 06:54:59;;;;;;;4.93;2.10;;;14.60;99.90;;;;;;5076663;28;20778;-79
2023/01/01 06:57:24;;;;;;;8.17;2.77;;;14.70;99.90;;;;;;5094576;28;20216;-79
2023/01/01 06:59:50;;;;;;;9.57;2.53;;;14.60;99.90;;;;;;5094741;28;20550;-79
2023/01/01 07:02:16;;;;;;;8.90;1.97;;;14.70;99.90;;;;;;5094693;28;20212;-79
2023/01/01 07:04:41;;;;;;;9.33;2.47;;;14.80;99.90;;;;;;5094730;28;20581;-79
2023/01/01 07:07:07;;;;;;;7.80;2.40;;;14.70;99.90;;;;;;5094522;28;20209;-79
2023/01/01 07:09:33;;;;;;;8.27;2.00;;;14.50;99.90;;;;;;5094478;28;20178;-79
2023/01/01 07:11:59;;;;;;;11.13;2.40;;;14.40;99.90;;;;;;5094184;28;20204;-79
2023/01/01 07:14:25;;;;;;;9.43;2.83;;;14.30;99.90;;;;;;5076229;28;20582;-79
2023/01/01 07:16:50;;;;;;;6.83;2.43;;;14.30;99.90;;;;;;5094310;28;20414;-79
2023/01/01 07:19:16;;;;;;;8.17;2.47;;;14.20;99.90;;;;;;5094227;28;20178;-79
2023/01/01 07:21:51;;;;;;;11.80;2.40;;;14.30;99.90;;;;;;5094288;28;20235;-79
2023/01/01 07:24:17;;;;;;;9.43;2.53;;;14.20;99.90;;;;;;5076062;28;20212;-79
2023/01/01 07:26:44;;;;;;;8.53;2.73;;;14.30;99.90;;;;;;5094162;28;20170;-79
2023/01/01 07:29:11;;;;;;;8.23;2.33;;;14.30;99.90;;;;;;5094300;28;20179;-79
2023/01/01 07:31:41;;;;;;;6.73;2.47;;;14.20;99.90;;;;;;5093960;28;20669;-79
2023/01/01 07:34:12;;;;;;;9.17;2.73;;;14.10;99.90;;;;;;5094012;28;20188;-79
2023/01/01 07:36:37;;;;;;;8.83;2.40;;;14.10;99.90;;;;;;5094204;28;20178;-79
2023/01/01 07:39:03;;;;;;;8.03;2.70;;;14.10;99.90;;;;;;5093973;28;20550;-79
2023/01/01 07:41:28;;;;;;;12.03;2.67;;;14.20;99.90;;;;;;5093726;28;20179;-79
2023/01/01 07:43:54;;;;;;;12.90;2.80;;;14.30;99.90;;;;;;5093498;28;20220;-80
2023/01/01 07:46:19;;;;;;;11.90;2.37;;;14.30;99.90;;;;;;5093816;28;20239;-80
2023/01/01 07:48:46;;;;;;;8.27;2.60;;;14.30;99.90;;;;;;5076179;28;20174;-79
2023/01/01 07:51:11;;;;;;;7.50;2.63;;;14.30;99.90;;;;;;5075807;28;20183;-80
2023/01/01 07:53:37;;;;;;;7.37;1.87;;;14.10;99.90;;;;;;5093500;28;20182;-80
2023/01/01 07:56:05;;;;;;;6.63;2.27;;;14.10;99.90;;;;;;5075490;28;20268;-80
2023/01/01 07:58:30;;;;;;;8.93;2.70;;;14.00;99.90;;;;;;5093674;28;20240;-79
2023/01/01 08:00:57;;;;;;;10.33;2.37;;;14.00;99.90;;;;;;5093566;28;20631;-79
2023/01/01 08:03:22;;;;;;;8.97;2.33;;;14.00;99.90;;;;;;5075234;28;20217;-79
2023/01/01 08:05:48;;;;;;;5.60;1.97;;;14.10;99.90;;;;;;5075690;28;20174;-79
2023/01/01 08:08:14;;;;;;;7.63;2.70;;;13.90;99.90;;;;;;5093396;28;20269;-79
2023/01/01 08:10:41;;;;;;;8.73;2.60;;;13.90;99.90;;;;;;5093741;28;20188;-79
2023/01/01 08:13:07;;;;;;;8.10;3.23;;;13.80;99.90;;;;;;5075205;28;20659;-79
2023/01/01 08:15:33;;;;;;;8.73;2.30;;;13.80;99.90;;;;;;5093284;28;20182;-79
2023/01/01 08:18:01;;;;;;;7.93;2.57;;;13.90;99.90;;;;;;5093156;28;20645;-79
2023/01/01 08:20:29;;;;;;;8.70;2.70;;;13.90;99.90;;;;;;5075363;28;20638;-79
2023/01/01 08:22:54;;;;;;;9.80;2.87;;;13.90;99.90;;;;;;5092837;28;20586;-79
2023/01/01 08:25:21;;;;;;;6.70;2.77;;;13.90;99.90;;;;;;5075371;28;20642;-79
2023/01/01 08:27:47;;;;;;;8.87;3.20;;;13.90;99.90;;;;;;5093131;28;20183;-79
2023/01/01 08:30:14;;;;;;;8.37;2.93;;;14.00;99.90;;;;;;5092955;28;20217;-79
2023/01/01 08:32:40;;;;;;;7.40;2.70;;;13.90;99.90;;;;;;5093270;28;20243;-79
2023/01/01 08:35:06;;;;;;;8.50;2.33;;;13.80;99.90;;;;;;5075031;28;20658;-80
2023/01/01 08:37:32;;;;;;;8.33;2.30;;;13.90;99.90;;;;;;5074969;28;20243;-80
2023/01/01 08:39:57;;;;;;;9.00;2.60;;;14.00;99.90;;;;;;5075013;28;20646;-80
2023/01/01 08:42:23;;;;;;;6.33;2.30;;;14.00;99.90;;;;;;5093051;28;20205;-79
2023/01/01 08:44:48;;;;;;;7.97;2.60;;;14.00;99.90;;;;;;5093254;28;20178;-79
2023/01/01 08:47:21;;;;;;;10.53;2.60;;;13.90;99.90;;;;;;5093312;28;20542;-80
2023/01/01 08:49:47;;;;;;;11.03;2.67;;;13.80;99.90;;;;;;5075084;28;20178;-79
2023/01/01 08:52:13;;;;;;;6.80;2.57;;;14.00;99.90;;;;;;5092791;28;20549;-79
2023/01/01 08:54:39;;;;;;;6.87;2.10;;;14.00;99.90;;;;;;5075660;28;20182;-80
2023/01/01 08:57:05;;;;;;;11.93;2.93;;;14.00;99.90;;;;;;5097292;28;20181;-79
2023/01/01 08:59:30;;;;;;;7.93;2.40;;;14.10;99.90;;;;;;5096904;28;20176;-79
2023/01/01 09:01:58;;;;;;;11.23;2.80;;;14.30;99.90;;;;;;5096961;28;20167;-79
2023/01/01 09:04:24;;;;;;;7.77;2.37;;;14.30;99.90;;;;;;5078607;28;20731;-80
2023/01/01 09:06:51;;;;;;;8.87;2.93;;;14.30;99.90;;;;;;5096733;28;20204;-79
2023/01/01 09:09:17;;;;;;;9.33;2.77;;;14.10;99.90;;;;;;5078648;28;20212;-79
2023/01/01 09:12:12;;;;;;;9.03;2.63;;;14.00;99.90;;;;;;5078527;28;20205;-80
2023/01/01 09:14:37;;;;;;;12.10;2.57;;;14.00;99.90;;;;;;5094764;28;20198;-79
2023/01/01 09:17:03;;;;;;;6.07;2.33;;;14.20;99.90;;;;;;5097336;28;20634;-80
2023/01/01 09:19:29;;;;;;;6.60;2.57;;;14.10;99.90;;;;;;5078781;28;20613;-79
2023/01/01 09:21:55;;;;;;;8.07;2.90;;;14.00;99.90;;;;;;5096172;28;20185;-76
2023/01/01 09:24:21;;;;;;;8.33;2.33;;;14.00;99.90;;;;;;5096545;28;20208;-76
2023/01/01 09:26:47;;;;;;;9.17;2.47;;;14.20;99.90;;;;;;5078200;28;20275;-76
2023/01/01 09:29:17;;;;;;;6.03;1.97;;;14.10;99.90;;;;;;5096153;28;20177;-76
2023/01/01 09:31:43;;;;;;;6.33;2.20;;;14.10;99.90;;;;;;5096305;28;20639;-76
2023/01/01 09:34:09;;;;;;;8.97;2.50;;;14.00;99.90;;;;;;5078017;28;20235;-76
2023/01/01 09:36:35;;;;;;;5.63;2.80;;;14.10;99.90;;;;;;5077730;28;20177;-75
2023/01/01 09:39:01;;;;;;;6.93;2.33;;;14.10;99.90;;;;;;5077937;28;20186;-76
2023/01/01 09:42:02;;;;;;;8.17;2.80;;;14.20;99.90;;;;;;5077784;28;20189;-76
2023/01/01 09:45:00;;;;;;;11.60;2.60;;;14.30;99.90;;;;;;5095871;28;20189;-76
2023/01/01 09:47:35;;;;;;;7.03;2.50;;;14.30;99.90;;;;;;5044680;28;20189;-76
2023/01/01 09:50:07;;;;;;;9.50;3.13;;;14.30;99.90;;;;;;5095606;28;20186;-76
2023/01/01 09:53:03;;;;;;;6.33;2.10;;;14.30;99.90;;;;;;5077660;28;20643;-75
2023/01/01 09:55:45;;;;;;;8.87;2.20;;;14.50;99.90;;;;;;5076764;28;20196;-75
2023/01/01 09:58:11;;;;;;;7.53;1.93;;;14.30;99.90;;;;;;5095833;28;20649;-76
2023/01/01 10:00:41;;;;;;;5.73;1.97;;;14.50;99.90;;;;;;5077290;28;20210;-76
2023/01/01 10:03:17;;;;;;;7.90;2.40;;;14.30;99.90;;;;;;5095651;28;20315;-76
2023/01/01 10:06:13;;;;;;;9.07;2.40;;;14.30;99.90;;;;;;5095276;28;20174;-76
2023/01/01 10:08:57;;;;;;;8.43;2.50;;;14.50;99.90;;;;;;5077376;28;20178;-76
2023/01/01 10:11:30;;;;;;;7.77;2.40;;;14.50;99.90;;;;;;5095246;28;20565;-75
2023/01/01 10:13:58;;;;;;;8.63;1.90;;;14.50;99.90;;;;;;5077379;28;20773;-76
2023/01/01 10:16:36;;;;;;;10.60;1.97;;;14.50;99.90;;;;;;5077124;28;20216;-76
2023/01/01 10:19:24;;;;;;;7.93;2.57;;;14.50;99.90;;;;;;5095247;28;20186;-76
2023/01/01 10:21:53;;;;;;;6.83;2.17;;;14.70;99.90;;;;;;5079158;28;20197;-76
2023/01/01 10:24:27;;;;;;;7.80;2.10;;;14.50;99.90;;;;;;5077121;28;20217;-76
2023/01/01 10:26:55;;;;;;;6.53;1.80;;;14.50;99.90;;;;;;5095171;28;20194;-76
2023/01/01 10:29:35;;;;;;;13.90;2.53;;;14.50;99.90;;;;;;5095075;28;20693;-76
2023/01/01 10:32:26;;;;;;;7.03;2.43;;;14.50;99.90;;;;;;5095104;28;20259;-76
2023/01/01 10:34:52;;;;;;;8.43;2.07;;;14.60;99.90;;;;;;5094839;28;20185;-76
2023/01/01 10:37:19;;;;;;;8.53;2.30;;;14.70;99.90;;;;;;5095014;28;20174;-75
2023/01/01 10:39:45;;;;;;;8.07;1.67;;;14.90;99.90;;;;;;5095197;28;20630;-77
2023/01/01 10:42:13;;;;;;;11.10;1.77;;;15.00;99.90;;;;;;5094674;28;20170;-76
2023/01/01 10:44:39;;;;;;;8.03;2.00;;;15.00;99.90;;;;;;5094926;28;20244;-76
2023/01/01 10:47:25;;;;;;;7.40;1.80;;;15.20;99.90;;;;;;5094823;28;20174;-75
2023/01/01 10:49:59;;;;;;;9.00;2.07;;;15.40;99.90;;;;;;5076336;28;20178;-76
2023/01/01 10:52:30;;;;;;;5.83;1.83;;;15.10;99.90;;;;;;5094658;28;20186;-77
2023/01/01 10:54:56;;;;;;;9.87;2.10;;;14.90;99.90;;;;;;5076478;28;20181;-75
2023/01/01 10:57:39;;;;;;;8.47;2.37;;;15.00;99.90;;;;;;5094946;28;20163;-75
2023/01/01 11:00:31;;;;;;;10.53;2.17;;;15.00;99.90;;;;;;5076514;28;20602;-75
2023/01/01 11:03:17;;;;;;;8.97;2.27;;;14.90;99.90;;;;;;5072215;28;20217;-76
2023/01/01 11:06:08;;;;;;;9.23;1.70;;;15.10;99.90;;;;;;5076472;28;20170;-76
2023/01/01 11:08:36;;;;;;;8.30;2.63;;;15.30;99.90;;;;;;5076255;28;20642;-76
2023/01/01 11:11:03;;;;;;;11.30;2.47;;;15.50;99.90;;;;;;5076377;28;20228;-76
2023/01/01 11:13:31;;;;;;;10.97;2.17;;;15.60;99.90;;;;;;5076282;28;20201;-77
2023/01/01 11:15:58;;;;;;;10.63;2.07;;;15.70;99.90;;;;;;5076180;28;20245;-76
2023/01/01 11:18:34;;;;;;;9.27;2.23;;;15.70;99.90;;;;;;5093220;28;20178;-76
2023/01/01 11:21:01;;;;;;;10.00;2.30;;;15.30;99.90;;;;;;5075747;28;20178;-76
2023/01/01 11:23:34;;;;;;;10.47;1.97;;;15.30;99.90;;;;;;5094127;28;20672;-76
2023/01/01 11:26:12;;;;;;;8.40;1.80;;;15.60;99.90;;;;;;5093872;28;20572;-76
2023/01/01 11:28:39;;;;;;;9.20;2.37;;;15.40;99.90;;;;;;5075597;28;20181;-77
2023/01/01 11:31:19;;;;;;;8.03;2.33;;;15.60;99.90;;;;;;5075521;28;20197;-77
2023/01/01 11:33:46;;;;;;;10.73;2.30;;;15.70;99.90;;;;;;5093540;28;20179;-76
2023/01/01 11:36:27;;;;;;;9.50;2.30;;;15.80;99.90;;;;;;5075636;28;20643;-76
2023/01/01 11:39:06;;;;;;;9.30;1.80;;;15.70;99.90;;;;;;5075539;28;20175;-77
2023/01/01 11:41:47;;;;;;;12.13;2.20;;;15.40;99.90;;;;;;5075641;28;20810;-76
2023/01/01 11:44:31;;;;;;;10.73;2.17;;;15.50;99.90;;;;;;5075601;28;20707;-76
2023/01/01 11:46:57;;;;;;;7.73;2.10;;;15.50;99.90;;;;;;5075225;28;20181;-76
2023/01/01 11:49:27;;;;;;;12.87;2.57;;;15.60;99.90;;;;;;5093657;28;20510;-76
2023/01/01 11:51:53;;;;;;;8.13;2.07;;;15.50;99.90;;;;;;5075211;28;20576;-75
2023/01/01 11:54:22;;;;;;;7.27;2.10;;;15.50;99.90;;;;;;5074924;28;20162;-75
2023/01/01 11:56:53;;;;;;;6.10;1.97;;;15.70;99.90;;;;;;5074895;28;20647;-76
2023/01/01 11:59:25;;;;;;;8.33;2.43;;;15.60;99.90;;;;;;5093298;28;20174;-76
2023/01/01 12:02:03;;;;;;;11.60;1.90;;;15.50;99.90;;;;;;5074848;28;20277;-76
2023/01/01 12:04:42;;;;;;;10.40;2.33;;;15.30;99.90;;;;;;5074728;28;20206;-76
2023/01/01 12:07:10;;;;;;;10.33;2.37;;;15.50;99.90;;;;;;5075180;28;20664;-76
2023/01/01 12:09:56;;;;;;;11.00;2.40;;;15.20;99.90;;;;;;5093264;28;20178;-76
2023/01/01 12:12:47;;;;;;;7.63;2.47;;;15.20;99.90;;;;;;5093287;28;20174;-76
2023/01/01 12:15:36;;;;;;;10.20;3.10;;;15.20;99.90;;;;;;5093006;28;20533;-76
2023/01/01 12:18:17;;;;;;;12.43;2.73;;;15.20;99.90;;;;;;5074948;28;20325;-76
2023/01/01 12:21:10;;;;;;;9.40;3.20;;;15.10;99.90;;;;;;5074952;28;20219;-77
2023/01/01 12:23:37;;;;;;;11.07;2.47;;;15.20;99.90;;;;;;5074759;28;20214;-76
2023/01/01 12:26:11;;;;;;;12.67;2.33;;;15.10;99.90;;;;;;5075047;28;20273;-76
2023/01/01 12:29:11;;;;;;;14.40;2.43;;;15.20;99.90;;;;;;5074356;28;20189;-76
2023/01/01 12:31:36;;;;;;;11.27;2.93;;;15.00;99.90;;;;;;5074563;28;20549;-76
2023/01/01 12:34:12;;;;;;;8.93;2.83;;;14.90;99.90;;;;;;5093027;28;20170;-76
2023/01/01 12:36:48;;;;;;;7.70;2.30;;;14.90;99.90;;;;;;5074770;28;20186;-76
2023/01/01 12:39:49;;;;;;;10.13;2.30;;;15.20;99.90;;;;;;5074675;28;20186;-76
2023/01/01 12:42:33;;;;;;;8.30;2.43;;;15.20;99.90;;;;;;5092814;28;20192;-76
2023/01/01 12:45:13;;;;;;;9.60;2.77;;;15.10;99.90;;;;;;5092665;28;20177;-76
2023/01/01 12:47:54;;;;;;;5.90;2.53;;;15.10;99.90;;;;;;5092924;28;20177;-76
2023/01/01 12:50:35;;;;;;;7.97;2.10;;;15.10;99.90;;;;;;5074622;28;20228;-76
2023/01/01 12:53:05;;;;;;;8.50;2.10;;;15.10;99.90;;;;;;5093008;28;20261;-76
2023/01/01 12:55:43;;;;;;;8.20;2.03;;;15.00;99.90;;;;;;5092736;28;20182;-75
2023/01/01 12:58:15;;;;;;;11.47;2.77;;;15.10;99.90;;;;;;5092877;28;20206;-76
2023/01/01 13:00:50;;;;;;;9.33;2.77;;;14.90;99.90;;;;;;5092657;28;20167;-75
2023/01/01 13:03:23;;;;;;;10.77;2.67;;;15.00;99.90;;;;;;5074661;28;20288;-75
2023/01/01 13:05:52;;;;;;;11.10;2.50;;;14.90;99.90;;;;;;5074494;28;20570;-76
2023/01/01 13:08:18;;;;;;;10.33;2.57;;;15.00;99.90;;;;;;5092664;28;20171;-76